createdAt,value
2018-11-12T00:01:24.269Z,101375.07
2018-11-12T00:03:52.697Z,101381.56
2018-11-12T00:06:21.070Z,101370.30
2018-11-12T00:08:49.462Z,101365.06
2018-11-12T00:11:17.835Z,101375.41
2018-11-12T00:13:46.229Z,101385.41
2018-11-12T00:16:14.593Z,101378.01
2018-11-12T00:18:42.986Z,101379.30
2018-11-12T00:21:11.351Z,101375.83
2018-11-12T00:23:39.747Z,101391.81
2018-11-12T00:26:08.174Z,101397.44
2018-11-12T00:28:36.574Z,101411.78
2018-11-12T00:31:04.963Z,101398.36
2018-11-12T00:33:33.363Z,101400.52
2018-11-12T00:36:01.741Z,101401.44
2018-11-12T00:38:30.136Z,101407.98
2018-11-12T00:40:58.510Z,101408.38
2018-11-12T00:43:27.013Z,101408.47
2018-11-12T00:45:55.454Z,101415.41
2018-11-12T00:48:23.845Z,101410.25
2018-11-12T00:50:52.370Z,101405.06
2018-11-12T00:53:20.760Z,101406.37
2018-11-12T00:55:49.146Z,101403.38
2018-11-12T00:58:17.542Z,101402.55
2018-11-12T01:00:45.910Z,101396.50
2018-11-12T01:03:14.320Z,101390.44
2018-11-12T01:05:42.692Z,101391.34
2018-11-12T01:08:11.117Z,101399.14
2018-11-12T01:10:39.494Z,101387.84
2018-11-12T01:13:07.910Z,101389.57
2018-11-12T01:15:36.277Z,101386.96
2018-11-12T01:18:04.694Z,101390.86
2018-11-12T01:20:33.090Z,101400.36
2018-11-12T01:23:01.465Z,101399.96
2018-11-12T01:25:29.865Z,101399.05
2018-11-12T01:27:58.242Z,101400.36
2018-11-12T01:30:26.642Z,101392.12
2018-11-12T01:32:55.019Z,101394.29
2018-11-12T01:35:23.417Z,101398.23
2018-11-12T01:37:51.795Z,101398.67
2018-11-12T01:40:20.188Z,101407.34
2018-11-12T01:42:48.582Z,101409.94
2018-11-12T01:45:18.186Z,101418.21
2018-11-12T01:47:47.666Z,101426.02
2018-11-12T01:50:16.583Z,101435.11
2018-11-12T01:52:45.546Z,101449.02
2018-11-12T01:55:15.074Z,101452.02
2018-11-12T01:57:43.942Z,101445.98
2018-11-12T02:00:15.583Z,101440.31
2018-11-12T02:02:45.422Z,101449.89
2018-11-12T02:05:13.819Z,101457.64
2018-11-12T02:07:42.203Z,101458.11
2018-11-12T02:10:12.214Z,101455.09
2018-11-12T02:12:40.986Z,101459.86
2018-11-12T02:15:13.650Z,101456.00
2018-11-12T02:17:42.661Z,101456.00
2018-11-12T02:20:12.694Z,101458.60
2018-11-12T02:22:41.566Z,101459.47
2018-11-12T02:25:10.957Z,101456.00
2018-11-12T02:27:39.569Z,101454.27
2018-11-12T02:30:12.765Z,101475.07
2018-11-12T02:32:41.145Z,101474.64
2018-11-12T02:35:09.935Z,101473.77
2018-11-12T02:37:38.797Z,101482.00
2018-11-12T02:40:09.151Z,101482.38
2018-11-12T02:42:37.545Z,101473.66
2018-11-12T02:45:06.878Z,101471.44
2018-11-12T02:47:35.265Z,101485.21
2018-11-12T02:50:03.704Z,101490.83
2018-11-12T02:52:32.086Z,101495.97
2018-11-12T02:55:00.481Z,101492.45
2018-11-12T02:57:28.947Z,101506.31
2018-11-12T02:59:57.299Z,101503.71
2018-11-12T03:02:25.677Z,101495.87
2018-11-12T03:04:54.078Z,101475.45
2018-11-12T03:07:22.467Z,101477.56
2018-11-12T03:09:50.869Z,101487.08
2018-11-12T03:12:19.242Z,101483.58
2018-11-12T03:14:47.637Z,101493.95
2018-11-12T03:17:16.020Z,101494.77
2018-11-12T03:19:44.421Z,101498.18
2018-11-12T03:22:12.796Z,101492.92
2018-11-12T03:24:41.206Z,101504.56
2018-11-12T03:27:09.577Z,101502.38
2018-11-12T03:29:37.978Z,101508.37
2018-11-12T03:32:06.558Z,101510.06
2018-11-12T03:34:34.972Z,101503.50
2018-11-12T03:37:03.341Z,101507.34
2018-11-12T03:39:31.752Z,101510.38
2018-11-12T03:42:00.157Z,101503.88
2018-11-12T03:44:28.530Z,101502.53
2018-11-12T03:46:57.042Z,101509.09
2018-11-12T03:49:25.417Z,101501.72
2018-11-12T03:51:53.813Z,101505.19
2018-11-12T03:54:22.193Z,101503.00
2018-11-12T03:56:50.597Z,101501.66
2018-11-12T03:59:18.965Z,101499.91
2018-11-12T04:01:47.369Z,101491.20
2018-11-12T04:04:17.110Z,101481.19
2018-11-12T04:06:46.433Z,101489.34
2018-11-12T04:09:14.809Z,101496.22
2018-11-12T04:11:44.531Z,101492.22
2018-11-12T04:14:13.389Z,101495.67
2018-11-12T04:16:43.942Z,101502.97
2018-11-12T04:19:12.394Z,101503.39
2018-11-12T04:21:40.813Z,101495.17
2018-11-12T04:24:09.194Z,101498.58
2018-11-12T04:26:37.589Z,101499.83
2018-11-12T04:29:06.006Z,101506.80
2018-11-12T04:31:34.403Z,101514.11
2018-11-12T04:34:02.788Z,101515.41
2018-11-12T04:36:31.186Z,101529.23
2018-11-12T04:38:59.566Z,101544.39
2018-11-12T04:41:27.989Z,101542.27
2018-11-12T04:43:56.367Z,101540.12
2018-11-12T04:46:24.771Z,101529.31
2018-11-12T04:48:53.137Z,101520.70
2018-11-12T04:51:21.541Z,101515.51
2018-11-12T04:53:49.977Z,101523.73
2018-11-12T04:56:18.351Z,101530.23
2018-11-12T04:58:46.730Z,101522.06
2018-11-12T05:01:15.149Z,101511.70
2018-11-12T05:03:43.517Z,101507.41
2018-11-12T05:06:11.914Z,101511.32
2018-11-12T05:08:40.291Z,101507.47
2018-11-12T05:11:08.733Z,101519.61
2018-11-12T05:13:37.127Z,101515.31
2018-11-12T05:16:06.026Z,101515.31
2018-11-12T05:18:34.463Z,101518.78
2018-11-12T05:21:02.919Z,101521.83
2018-11-12T05:23:31.266Z,101530.97
2018-11-12T05:25:59.671Z,101536.97
2018-11-12T05:28:28.046Z,101531.77
2018-11-12T05:30:56.592Z,101528.37
2018-11-12T05:33:24.977Z,101531.78
2018-11-12T05:35:53.407Z,101543.47
2018-11-12T05:38:21.852Z,101539.19
2018-11-12T05:40:50.185Z,101530.05
2018-11-12T05:43:18.605Z,101536.09
2018-11-12T05:45:46.986Z,101544.70
2018-11-12T05:48:15.385Z,101543.41
2018-11-12T05:50:43.764Z,101548.60
2018-11-12T05:53:12.158Z,101546.05
2018-11-12T05:55:40.536Z,101551.25
2018-11-12T05:58:08.934Z,101565.98
2018-11-12T06:00:37.950Z,101574.14
2018-11-12T06:03:06.554Z,101572.45
2018-11-12T06:05:35.385Z,101568.08
2018-11-12T06:08:03.999Z,101555.09
2018-11-12T06:10:33.173Z,101559.86
2018-11-12T06:13:01.574Z,101565.05
2018-11-12T06:15:30.020Z,101572.41
2018-11-12T06:17:58.409Z,101569.33
2018-11-12T06:20:28.837Z,101571.03
2018-11-12T06:22:57.262Z,101567.53
2018-11-12T06:25:27.817Z,101568.44
2018-11-12T06:27:56.354Z,101577.92
2018-11-12T06:30:27.373Z,101581.81
2018-11-12T06:32:55.770Z,101571.83
2018-11-12T06:35:24.157Z,101574.33
2018-11-12T06:37:53.161Z,101576.41
2018-11-12T06:40:22.642Z,101576.33
2018-11-12T06:42:51.349Z,101576.28
2018-11-12T06:45:23.045Z,101568.44
2018-11-12T06:47:52.307Z,101574.06
2018-11-12T06:50:22.090Z,101582.27
2018-11-12T06:52:50.631Z,101589.63
2018-11-12T06:55:19.573Z,101604.39
2018-11-12T06:57:48.491Z,101604.41
2018-11-12T07:00:19.221Z,101633.48
2018-11-12T07:02:47.618Z,101642.56
2018-11-12T07:05:16.262Z,101637.42
2018-11-12T07:07:44.678Z,101642.19
2018-11-12T07:10:14.553Z,101646.95
2018-11-12T07:12:43.826Z,101653.03
2018-11-12T07:15:16.751Z,101640.05
2018-11-12T07:17:45.245Z,101641.34
2018-11-12T07:20:15.034Z,101637.05
2018-11-12T07:22:43.654Z,101646.14
2018-11-12T07:25:12.982Z,101644.42
2018-11-12T07:27:41.352Z,101641.77
2018-11-12T07:30:13.058Z,101636.95
2018-11-12T07:32:41.455Z,101647.76
2018-11-12T07:35:11.467Z,101650.78
2018-11-12T07:37:40.079Z,101652.16
2018-11-12T07:40:09.331Z,101660.45
2018-11-12T07:42:38.257Z,101660.50
2018-11-12T07:45:08.307Z,101656.63
2018-11-12T07:47:36.861Z,101654.51
2018-11-12T07:50:07.711Z,101658.41
2018-11-12T07:52:36.351Z,101664.55
2018-11-12T07:55:05.701Z,101667.64
2018-11-12T07:57:34.123Z,101671.22
2018-11-12T08:00:02.513Z,101668.27
2018-11-12T08:02:30.924Z,101666.60
2018-11-12T08:04:59.327Z,101645.45
2018-11-12T08:07:27.710Z,101641.17
2018-11-12T08:09:56.106Z,101636.00
2018-11-12T08:12:24.477Z,101650.77
2018-11-12T08:14:52.906Z,101639.47
2018-11-12T08:17:21.285Z,101632.17
2018-11-12T08:19:49.701Z,101619.66
2018-11-12T08:22:18.079Z,101619.29
2018-11-12T08:24:46.515Z,101628.38
2018-11-12T08:27:14.915Z,101639.15
2018-11-12T08:29:43.361Z,101634.26
2018-11-12T08:32:11.719Z,101636.87
2018-11-12T08:34:40.118Z,101636.00
2018-11-12T08:37:08.508Z,101634.70
2018-11-12T08:39:37.072Z,101632.11
2018-11-12T08:42:05.522Z,101638.23
2018-11-12T08:44:33.917Z,101631.30
2018-11-12T08:47:02.290Z,101634.38
2018-11-12T08:49:30.772Z,101632.60
2018-11-12T08:51:59.120Z,101624.38
2018-11-12T08:54:27.558Z,101619.69
2018-11-12T08:56:55.922Z,101613.67
2018-11-12T08:59:24.408Z,101611.14
2018-11-12T09:01:52.759Z,101619.86
2018-11-12T09:04:21.162Z,101609.52
2018-11-12T09:06:49.562Z,101611.31
2018-11-12T09:09:18.016Z,101614.35
2018-11-12T09:11:46.388Z,101612.20
2018-11-12T09:14:14.789Z,101611.38
2018-11-12T09:16:43.170Z,101608.80
2018-11-12T09:19:11.566Z,101617.52
2018-11-12T09:21:39.937Z,101618.39
2018-11-12T09:24:08.333Z,101614.09
2018-11-12T09:26:36.735Z,101614.09
2018-11-12T09:29:05.261Z,101617.58
2018-11-12T09:31:33.777Z,101616.83
2018-11-12T09:34:02.076Z,101618.67
2018-11-12T09:36:30.460Z,101614.46
2018-11-12T09:41:27.264Z,101618.20
2018-11-12T09:43:55.675Z,101621.28
2018-11-12T09:46:24.058Z,101618.70
2018-11-12T09:48:52.528Z,101627.47
2018-11-12T09:51:21.450Z,101626.19
2018-11-12T09:53:49.961Z,101624.94
2018-11-12T09:56:18.299Z,101622.38
2018-11-12T09:58:46.698Z,101628.08
2018-11-12T10:01:15.237Z,101631.17
2018-11-12T10:03:44.888Z,101630.27
2018-11-12T10:06:13.448Z,101629.89
2018-11-12T10:08:42.685Z,101628.20
2018-11-12T10:11:11.320Z,101637.80
2018-11-12T10:13:40.035Z,101632.70
2018-11-12T10:16:09.021Z,101631.42
2018-11-12T10:18:34.485Z,101629.31
2018-11-12T10:21:02.910Z,101622.80
2018-11-12T10:23:31.287Z,101624.16
2018-11-12T10:25:59.677Z,101618.19
2018-11-12T10:28:28.041Z,101616.52
2018-11-12T10:30:56.443Z,101613.96
2018-11-12T10:33:24.805Z,101611.80
2018-11-12T10:35:53.197Z,101608.77
2018-11-12T10:38:21.590Z,101611.42
2018-11-12T10:40:50.051Z,101607.56
2018-11-12T10:43:18.443Z,101602.37
2018-11-12T10:45:46.849Z,101599.81
2018-11-12T10:48:15.237Z,101595.48
2018-11-12T10:50:43.645Z,101590.70
2018-11-12T10:53:12.017Z,101588.55
2018-11-12T10:55:40.466Z,101574.28
2018-11-12T10:58:08.830Z,101574.28
2018-11-12T11:00:42.432Z,101567.78
2018-11-12T11:04:19.384Z,101566.95
2018-11-12T11:06:47.791Z,101553.47
2018-11-12T11:09:16.166Z,101527.50
2018-11-12T11:11:44.611Z,101523.20
2018-11-12T11:14:13.011Z,101531.53
2018-11-12T11:16:41.414Z,101542.87
2018-11-12T11:19:09.793Z,101548.12
2018-11-12T11:21:38.512Z,101546.40
2018-11-12T11:24:06.897Z,101548.17
2018-11-12T11:26:35.312Z,101545.14
2018-11-12T11:29:03.698Z,101544.75
2018-11-12T11:31:32.094Z,101540.85
2018-11-12T11:34:00.473Z,101532.17
2018-11-12T11:36:28.883Z,101540.90
2018-11-12T11:38:57.279Z,101540.03
2018-11-12T11:41:25.707Z,101538.78
2018-11-12T11:43:54.113Z,101525.80
2018-11-12T11:46:22.518Z,101515.01
2018-11-12T11:48:51.191Z,101512.93
2018-11-12T11:51:19.611Z,101496.09
2018-11-12T11:53:47.995Z,101489.72
2018-11-12T11:56:16.503Z,101489.80
2018-11-12T11:58:44.914Z,101482.52
2018-11-12T12:01:13.316Z,101481.77
2018-11-12T12:03:41.689Z,101462.70
2018-11-12T12:06:10.093Z,101452.80
2018-11-12T12:08:38.527Z,101464.56
2018-11-12T12:11:06.915Z,101481.61
2018-11-12T12:13:35.301Z,101463.05
2018-11-12T12:16:03.693Z,101474.81
2018-11-12T12:18:32.110Z,101476.20
2018-11-12T12:21:00.539Z,101474.97
2018-11-12T12:23:28.893Z,101465.02
2018-11-12T12:25:57.348Z,101472.44
2018-11-12T12:28:25.697Z,101465.52
2018-11-12T12:30:54.094Z,101460.37
2018-11-12T12:33:22.506Z,101469.06
2018-11-12T12:35:50.987Z,101466.53
2018-11-12T12:38:19.299Z,101465.30
2018-11-12T12:40:47.694Z,101459.28
2018-11-12T12:43:16.089Z,101458.08
2018-11-12T12:45:44.694Z,101461.69
2018-11-12T12:48:12.974Z,101448.71
2018-11-12T12:50:41.373Z,101453.15
2018-11-12T12:53:09.766Z,101447.59
2018-11-12T12:55:38.759Z,101443.70
2018-11-12T12:58:07.138Z,101445.06
2018-11-12T13:00:35.513Z,101439.88
2018-11-12T13:03:03.914Z,101443.00
2018-11-12T13:05:32.283Z,101433.92
2018-11-12T13:08:00.708Z,101434.00
2018-11-12T13:10:29.082Z,101440.14
2018-11-12T13:12:57.492Z,101433.64
2018-11-12T13:15:25.980Z,101431.98
2018-11-12T13:17:54.379Z,101426.81
2018-11-12T13:20:24.143Z,101430.75
2018-11-12T13:22:52.514Z,101430.34
2018-11-12T13:25:20.889Z,101432.97
2018-11-12T13:27:49.550Z,101429.52
2018-11-12T13:30:19.347Z,101433.45
2018-11-12T13:32:48.059Z,101426.47
2018-11-12T13:35:18.169Z,101417.33
2018-11-12T13:37:46.571Z,101412.52
2018-11-12T13:40:17.627Z,101412.94
2018-11-12T13:42:49.658Z,101406.81
2018-11-12T13:45:18.066Z,101409.84
2018-11-12T13:47:46.829Z,101405.05
2018-11-12T13:50:16.709Z,101398.97
2018-11-12T13:52:45.482Z,101405.92
2018-11-12T13:55:14.809Z,101408.59
2018-11-12T13:57:43.226Z,101402.05
2018-11-12T14:00:13.869Z,101388.15
2018-11-12T14:02:43.046Z,101393.85
2018-11-12T14:05:13.445Z,101393.87
2018-11-12T14:07:42.362Z,101395.22
2018-11-12T14:10:12.354Z,101394.37
2018-11-12T14:12:41.275Z,101392.65
2018-11-12T14:15:11.995Z,101395.69
2018-11-12T14:17:40.897Z,101399.63
2018-11-12T14:20:09.297Z,101396.16
2018-11-12T14:22:38.287Z,101388.73
2018-11-12T14:25:07.793Z,101397.41
2018-11-12T14:27:36.233Z,101390.86
2018-11-12T14:30:04.644Z,101391.71
2018-11-12T14:32:33.430Z,101381.25
2018-11-12T14:35:01.807Z,101386.89
2018-11-12T14:37:30.210Z,101385.13
2018-11-12T14:39:58.587Z,101386.00
2018-11-12T14:42:27.015Z,101385.55
2018-11-12T14:44:56.038Z,101385.95
2018-11-12T14:47:24.429Z,101380.70
2018-11-12T14:49:52.811Z,101381.14
2018-11-12T14:52:21.396Z,101379.41
2018-11-12T14:54:49.830Z,101384.62
2018-11-12T14:57:18.201Z,101383.30
2018-11-12T14:59:46.623Z,101383.73
2018-11-12T15:02:15.076Z,101383.30
2018-11-12T15:04:43.455Z,101388.05
2018-11-12T15:07:11.830Z,101375.41
2018-11-12T15:09:40.239Z,101384.11
2018-11-12T15:12:08.609Z,101380.58
2018-11-12T15:14:37.051Z,101369.25
2018-11-12T15:17:05.458Z,101375.75
2018-11-12T15:19:33.880Z,101370.95
2018-11-12T15:22:02.437Z,101375.25
2018-11-12T15:24:30.838Z,101367.38
2018-11-12T15:26:59.218Z,101377.76
2018-11-12T15:29:27.729Z,101382.95
2018-11-12T15:31:56.041Z,101375.97
2018-11-12T15:34:24.438Z,101379.42
2018-11-12T15:36:52.960Z,101381.16
2018-11-12T15:39:21.258Z,101381.14
2018-11-12T15:41:49.655Z,101383.31
2018-11-12T15:44:18.044Z,101385.03
2018-11-12T15:46:46.487Z,101380.22
2018-11-12T15:49:14.907Z,101381.92
2018-11-12T15:51:43.285Z,101383.67
2018-11-12T15:54:11.698Z,101387.55
2018-11-12T15:56:40.078Z,101389.27
2018-11-12T15:59:08.469Z,101393.19
2018-11-12T16:01:36.847Z,101390.52
2018-11-12T16:04:05.454Z,101387.44
2018-11-12T16:06:33.899Z,101393.06
2018-11-12T16:09:02.261Z,101390.00
2018-11-12T16:11:30.636Z,101390.86
2018-11-12T16:13:59.033Z,101390.00
2018-11-12T16:16:27.414Z,101392.60
2018-11-12T16:18:55.827Z,101376.48
2018-11-12T16:21:24.202Z,101389.13
2018-11-12T16:23:52.594Z,101380.84
2018-11-12T16:26:21.015Z,101380.41
2018-11-12T16:28:49.395Z,101383.85
2018-11-12T16:31:17.794Z,101379.50
2018-11-12T16:33:46.170Z,101369.88
2018-11-12T16:36:14.563Z,101368.12
2018-11-12T16:38:42.958Z,101365.08
2018-11-12T16:41:11.371Z,101375.91
2018-11-12T16:43:39.767Z,101378.92
2018-11-12T16:46:08.262Z,101390.22
2018-11-12T16:48:36.575Z,101391.49
2018-11-12T16:51:04.983Z,101378.45
2018-11-12T16:53:33.366Z,101381.91
2018-11-12T16:56:01.767Z,101386.69
2018-11-12T16:58:30.150Z,101391.86
2018-11-12T17:00:58.555Z,101383.58
2018-11-12T17:03:26.935Z,101392.64
2018-11-12T17:05:55.333Z,101389.16
2018-11-12T17:08:23.766Z,101397.82
2018-11-12T17:10:52.166Z,101403.87
2018-11-12T17:13:20.542Z,101393.44
2018-11-12T17:15:48.942Z,101394.28
2018-11-12T17:18:17.418Z,101383.35
2018-11-12T17:20:45.825Z,101377.67
2018-11-12T17:23:14.277Z,101385.92
2018-11-12T17:25:42.678Z,101386.29
2018-11-12T17:28:11.070Z,101390.59
2018-11-12T17:30:39.464Z,101390.16
2018-11-12T17:33:07.868Z,101391.86
2018-11-12T17:35:36.271Z,101393.17
2018-11-12T17:38:04.913Z,101393.17
2018-11-12T17:40:33.323Z,101394.50
2018-11-12T17:43:01.773Z,101395.81
2018-11-12T17:45:30.159Z,101404.50
2018-11-12T17:47:59.099Z,101394.51
2018-11-12T17:50:27.527Z,101407.14
2018-11-12T17:52:55.918Z,101399.36
2018-11-12T17:55:24.360Z,101396.75
2018-11-12T17:57:52.719Z,101389.40
2018-11-12T18:00:23.270Z,101390.30
2018-11-12T18:02:51.685Z,101396.81
2018-11-12T18:05:20.100Z,101389.43
2018-11-12T18:07:48.645Z,101395.08
2018-11-12T18:10:17.778Z,101388.16
2018-11-12T18:12:46.258Z,101379.48
2018-11-12T18:15:16.066Z,101382.52
2018-11-12T18:17:44.462Z,101376.00
2018-11-12T18:20:16.531Z,101368.25
2018-11-12T18:22:44.959Z,101380.84
2018-11-12T18:25:13.757Z,101381.71
2018-11-12T18:27:42.149Z,101392.17
2018-11-12T18:30:14.253Z,101387.83
2018-11-12T18:32:42.946Z,101388.70
2018-11-12T18:35:11.446Z,101393.94
2018-11-12T18:37:39.851Z,101396.55
2018-11-12T18:40:10.221Z,101391.33
2018-11-12T18:42:38.674Z,101386.13
2018-11-12T18:45:09.444Z,101387.89
2018-11-12T18:47:38.030Z,101388.33
2018-11-12T18:50:08.486Z,101382.67
2018-11-12T18:52:36.963Z,101380.94
2018-11-12T18:55:06.622Z,101368.77
2018-11-12T18:57:35.096Z,101371.38
2018-11-12T19:00:04.010Z,101381.38
2018-11-12T19:02:32.424Z,101382.64
2018-11-12T19:05:00.853Z,101390.91
2018-11-12T19:07:29.291Z,101389.16
2018-11-12T19:09:57.701Z,101393.47
2018-11-12T19:12:26.253Z,101402.59
2018-11-12T19:14:54.674Z,101399.99
2018-11-12T19:17:23.093Z,101396.08
2018-11-12T19:19:51.474Z,101410.89
2018-11-12T19:24:48.013Z,101405.64
2018-11-12T19:27:16.561Z,101413.02
2018-11-12T19:29:44.911Z,101400.42
2018-11-12T19:32:13.332Z,101401.70
2018-11-12T19:34:41.716Z,101396.02
2018-11-12T19:37:10.159Z,101392.97
2018-11-12T19:39:38.530Z,101395.98
2018-11-12T19:42:06.954Z,101399.45
2018-11-12T19:44:35.347Z,101406.44
2018-11-12T19:47:03.745Z,101412.09
2018-11-12T19:49:32.128Z,101419.08
2018-11-12T19:52:00.531Z,101413.86
2018-11-12T19:54:28.938Z,101414.77
2018-11-12T19:56:57.371Z,101415.63
2018-11-12T19:59:25.746Z,101415.20
2018-11-12T20:01:54.326Z,101416.06
2018-11-12T20:04:22.731Z,101417.41
2018-11-12T20:06:51.121Z,101425.66
2018-11-12T20:09:19.682Z,101425.66
2018-11-12T20:11:48.062Z,101423.09
2018-11-12T20:14:16.553Z,101428.73
2018-11-12T20:16:44.942Z,101424.83
2018-11-12T20:19:13.505Z,101431.34
2018-11-12T20:21:41.903Z,101427.86
2018-11-12T20:24:10.313Z,101428.73
2018-11-12T20:26:38.700Z,101434.81
2018-11-12T20:29:07.125Z,101434.38
2018-11-12T20:31:35.497Z,101446.14
2018-11-12T20:34:03.947Z,101445.71
2018-11-12T20:36:32.358Z,101454.00
2018-11-12T20:39:00.820Z,101457.91
2018-11-12T20:41:29.182Z,101460.98
2018-11-12T20:43:57.618Z,101465.77
2018-11-12T20:46:25.994Z,101467.50
2018-11-12T20:48:54.434Z,101470.55
2018-11-12T20:51:22.811Z,101476.66
2018-11-12T20:53:51.230Z,101490.57
2018-11-12T20:56:19.598Z,101493.61
2018-11-12T20:58:48.019Z,101501.87
2018-11-12T21:01:16.461Z,101504.91
2018-11-12T21:03:44.862Z,101501.83
2018-11-12T21:06:13.295Z,101505.67
2018-11-12T21:08:41.702Z,101506.55
2018-11-12T21:11:10.082Z,101512.12
2018-11-12T21:13:38.482Z,101512.95
2018-11-12T21:16:06.875Z,101509.83
2018-11-12T21:18:35.298Z,101514.53
2018-11-12T21:21:03.666Z,101520.54
2018-11-12T21:23:32.054Z,101530.02
2018-11-12T21:26:00.461Z,101530.41
2018-11-12T21:28:28.830Z,101528.63
2018-11-12T21:30:57.338Z,101535.06
2018-11-12T21:33:25.719Z,101537.63
2018-11-12T21:35:54.123Z,101528.47
2018-11-12T21:38:22.514Z,101523.27
2018-11-12T21:40:50.913Z,101519.79
2018-11-12T21:43:19.492Z,101522.83
2018-11-12T21:45:47.743Z,101512.41
2018-11-12T21:48:16.128Z,101511.10
2018-11-12T21:50:44.557Z,101505.89
2018-11-12T21:53:12.931Z,101504.98
2018-11-12T21:55:41.504Z,101514.49
2018-11-12T21:58:09.886Z,101523.14
2018-11-12T22:00:38.298Z,101514.84
2018-11-12T22:03:06.706Z,101527.44
2018-11-12T22:05:35.153Z,101544.33
2018-11-12T22:08:04.342Z,101539.98
2018-11-12T22:10:32.800Z,101554.70
2018-11-12T22:13:01.173Z,101562.08
2018-11-12T22:15:29.571Z,101556.48
2018-11-12T22:17:57.949Z,101550.40
2018-11-12T22:20:27.586Z,101540.89
2018-11-12T22:22:55.954Z,101550.01
2018-11-12T22:25:24.655Z,101549.19
2018-11-12T22:27:53.585Z,101549.63
2018-11-12T22:30:23.152Z,101537.46
2018-11-12T22:32:52.430Z,101537.51
2018-11-12T22:35:20.829Z,101534.94
2018-11-12T22:37:49.489Z,101536.68
2018-11-12T22:40:18.623Z,101543.23
2018-11-12T22:42:48.306Z,101553.66
2018-11-12T22:45:17.930Z,101564.55
2018-11-12T22:47:46.907Z,101571.98
2018-11-12T22:50:15.322Z,101577.70
2018-11-12T22:52:44.373Z,101578.17
2018-11-12T22:55:14.009Z,101578.18
2018-11-12T22:57:42.379Z,101589.08
2018-11-12T23:00:19.411Z,101593.03
2018-11-12T23:02:48.444Z,101583.91
2018-11-12T23:05:17.462Z,101587.86
2018-11-12T23:07:46.737Z,101588.34
2018-11-12T23:10:15.655Z,101583.56
2018-11-12T23:12:44.152Z,101585.34
2018-11-12T23:15:13.063Z,101591.86
2018-11-12T23:17:41.590Z,101589.25
2018-11-12T23:20:12.961Z,101589.25
2018-11-12T23:22:42.134Z,101581.47
2018-11-12T23:25:10.954Z,101571.91
2018-11-12T23:27:39.717Z,101571.48
2018-11-12T23:30:10.055Z,101564.09
2018-11-12T23:32:38.437Z,101571.91
2018-11-12T23:35:08.885Z,101564.92
2018-11-12T23:37:37.283Z,101571.83
2018-11-12T23:40:06.525Z,101586.13
2018-11-12T23:42:34.937Z,101592.16
2018-11-12T23:45:03.322Z,101598.24
2018-11-12T23:47:31.732Z,101595.63
2018-11-12T23:50:00.102Z,101592.16
2018-11-12T23:52:28.493Z,101597.38
2018-11-12T23:54:57.068Z,101592.16
2018-11-12T23:57:25.517Z,101594.77
2018-11-12T23:59:54.046Z,101593.03
